sensor_id;sensor_type;location;lat;lon;timestamp;pressure;altitude;pressure_sealevel;temperature
76583;BMP280;65462;52.148;7.940;2023-04-08T00:02:07;101352.53;;;5.56
76583;BMP280;65462;52.148;7.940;2023-04-08T00:04:33;101378.53;;;5.67
76583;BMP280;65462;52.148;7.940;2023-04-08T00:06:58;101373.53;;;5.51
76583;BMP280;65462;52.148;7.940;2023-04-08T00:09:23;101394.50;;;5.71
76583;BMP280;65462;52.148;7.940;2023-04-08T00:11:48;101374.84;;;5.58
76583;BMP280;65462;52.148;7.940;2023-04-08T00:14:14;101380.88;;;5.64
76583;BMP280;65462;52.148;7.940;2023-04-08T00:16:39;101372.75;;;5.50
76583;BMP280;65462;52.148;7.940;2023-04-08T00:19:05;101391.88;;;5.61
76583;BMP280;65462;52.148;7.940;2023-04-08T00:21:31;101401.34;;;5.67
76583;BMP280;65462;52.148;7.940;2023-04-08T00:23:56;101407.59;;;5.61
76583;BMP280;65462;52.148;7.940;2023-04-08T00:26:22;101399.47;;;5.52
76583;BMP280;65462;52.148;7.940;2023-04-08T00:28:47;101392.66;;;5.46
76583;BMP280;65462;52.148;7.940;2023-04-08T00:31:12;101381.38;;;5.41
76583;BMP280;65462;52.148;7.940;2023-04-08T00:33:38;101382.41;;;5.40
76583;BMP280;65462;52.148;7.940;2023-04-08T00:36:03;101378.00;;;5.35
76583;BMP280;65462;52.148;7.940;2023-04-08T00:38:28;101397.88;;;5.46
76583;BMP280;65462;52.148;7.940;2023-04-08T00:40:54;101389.50;;;5.39
76583;BMP280;65462;52.148;7.940;2023-04-08T00:43:20;101351.75;;;5.15
76583;BMP280;65462;52.148;7.940;2023-04-08T00:45:46;101365.09;;;5.24
76583;BMP280;65462;52.148;7.940;2023-04-08T00:48:11;101365.09;;;5.14
76583;BMP280;65462;52.148;7.940;2023-04-08T00:50:37;101391.84;;;5.31
76583;BMP280;65462;52.148;7.940;2023-04-08T00:53:02;101386.88;;;5.19
76583;BMP280;65462;52.148;7.940;2023-04-08T00:55:27;101398.16;;;5.20
76583;BMP280;65462;52.148;7.940;2023-04-08T00:57:53;101394.69;;;5.09
76583;BMP280;65462;52.148;7.940;2023-04-08T01:00:18;101401.00;;;5.13
76583;BMP280;65462;52.148;7.940;2023-04-08T01:03:07;101391.84;;;5.16
76583;BMP280;65462;52.148;7.940;2023-04-08T01:05:41;101393.66;;;5.10
76583;BMP280;65462;52.148;7.940;2023-04-08T01:08:09;101405.97;;;5.15
76583;BMP280;65462;52.148;7.940;2023-04-08T01:10:36;101380.00;;;4.93
76583;BMP280;65462;52.148;7.940;2023-04-08T01:13:05;101386.25;;;4.92
76583;BMP280;65462;52.148;7.940;2023-04-08T01:15:34;101414.31;;;5.06
76583;BMP280;65462;52.148;7.940;2023-04-08T01:18:05;101411.97;;;5.05
76583;BMP280;65462;52.148;7.940;2023-04-08T01:20:31;101395.47;;;4.99
76583;BMP280;65462;52.148;7.940;2023-04-08T01:25:35;101404.63;;;4.97
76583;BMP280;65462;52.148;7.940;2023-04-08T01:28:06;101409.63;;;5.03
76583;BMP280;65462;52.148;7.940;2023-04-08T01:30:34;101398.31;;;4.88
76583;BMP280;65462;52.148;7.940;2023-04-08T01:33:01;101409.34;;;5.00
76583;BMP280;65462;52.148;7.940;2023-04-08T01:35:29;101406.44;;;4.96
76583;BMP280;65462;52.148;7.940;2023-04-08T01:37:55;101418.53;;;5.02
76583;BMP280;65462;52.148;7.940;2023-04-08T01:40:21;101398.28;;;4.83
76583;BMP280;65462;52.148;7.940;2023-04-08T01:42:48;101420.06;;;4.93
76583;BMP280;65462;52.148;7.940;2023-04-08T01:45:15;101425.06;;;5.00
76583;BMP280;65462;52.148;7.940;2023-04-08T01:47:41;101421.09;;;4.87
76583;BMP280;65462;52.148;7.940;2023-04-08T01:50:08;101429.22;;;5.01
76583;BMP280;65462;52.148;7.940;2023-04-08T01:52:37;101419.31;;;5.03
76583;BMP280;65462;52.148;7.940;2023-04-08T01:55:04;101405.63;;;4.91
76583;BMP280;65462;52.148;7.940;2023-04-08T01:57:31;101406.69;;;4.90
76583;BMP280;65462;52.148;7.940;2023-04-08T02:00:02;101427.69;;;5.05
76583;BMP280;65462;52.148;7.940;2023-04-08T02:02:31;101408.84;;;5.03
76583;BMP280;65462;52.148;7.940;2023-04-08T02:04:57;101417.72;;;5.07
76583;BMP280;65462;52.148;7.940;2023-04-08T02:07:22;101416.41;;;5.04
76583;BMP280;65462;52.148;7.940;2023-04-08T02:09:49;101400.16;;;4.97
76583;BMP280;65462;52.148;7.940;2023-04-08T02:12:14;101377.63;;;4.86
76583;BMP280;65462;52.148;7.940;2023-04-08T02:14:40;101376.31;;;4.84
76583;BMP280;65462;52.148;7.940;2023-04-08T02:17:14;101406.75;;;5.10
76583;BMP280;65462;52.148;7.940;2023-04-08T02:19:46;101412.25;;;5.14
76583;BMP280;65462;52.148;7.940;2023-04-08T02:22:39;101382.06;;;4.91
76583;BMP280;65462;52.148;7.940;2023-04-08T02:25:03;101428.72;;;5.09
76583;BMP280;65462;52.148;7.940;2023-04-08T02:27:33;101419.84;;;5.05
76583;BMP280;65462;52.148;7.940;2023-04-08T02:29:59;101429.28;;;5.06
76583;BMP280;65462;52.148;7.940;2023-04-08T02:32:28;101394.16;;;4.97
76583;BMP280;65462;52.148;7.940;2023-04-08T02:34:55;101430.59;;;5.19
76583;BMP280;65462;52.148;7.940;2023-04-08T02:37:20;101423.00;;;5.12
76583;BMP280;65462;52.148;7.940;2023-04-08T02:39:46;101403.06;;;5.01
76583;BMP280;65462;52.148;7.940;2023-04-08T02:42:11;101435.59;;;5.25
76583;BMP280;65462;52.148;7.940;2023-04-08T02:44:36;101414.38;;;5.17
76583;BMP280;65462;52.148;7.940;2023-04-08T02:47:01;101438.53;;;5.39
76583;BMP280;65462;52.148;7.940;2023-04-08T02:49:27;101420.16;;;5.29
76583;BMP280;65462;52.148;7.940;2023-04-08T02:51:52;101439.03;;;5.41
76583;BMP280;65462;52.148;7.940;2023-04-08T02:54:17;101402.09;;;5.22
76583;BMP280;65462;52.148;7.940;2023-04-08T02:56:43;101398.38;;;5.18
76583;BMP280;65462;52.148;7.940;2023-04-08T02:59:08;101407.81;;;5.24
76583;BMP280;65462;52.148;7.940;2023-04-08T03:01:33;101407.84;;;5.29
76583;BMP280;65462;52.148;7.940;2023-04-08T03:03:58;101440.38;;;5.53
76583;BMP280;65462;52.148;7.940;2023-04-08T03:06:24;101435.13;;;5.48
76583;BMP280;65462;52.148;7.940;2023-04-08T03:08:49;101436.69;;;5.49
76583;BMP280;65462;52.148;7.940;2023-04-08T03:11:15;101402.34;;;5.31
76583;BMP280;65462;52.148;7.940;2023-04-08T03:13:40;101417.81;;;5.42
76583;BMP280;65462;52.148;7.940;2023-04-08T03:16:06;101395.25;;;5.26
76583;BMP280;65462;52.148;7.940;2023-04-08T03:18:31;101437.75;;;5.63
76583;BMP280;65462;52.148;7.940;2023-04-08T03:20:56;101443.00;;;5.63
76583;BMP280;65462;52.148;7.940;2023-04-08T03:23:22;101442.19;;;5.63
76583;BMP280;65462;52.148;7.940;2023-04-08T03:25:47;101450.84;;;5.68
76583;BMP280;65462;52.148;7.940;2023-04-08T03:28:12;101431.97;;;5.56
76583;BMP280;65462;52.148;7.940;2023-04-08T03:30:38;101406.28;;;5.43
76583;BMP280;65462;52.148;7.940;2023-04-08T03:33:03;101443.50;;;5.65
76583;BMP280;65462;52.148;7.940;2023-04-08T03:35:32;101433.31;;;5.64
76583;BMP280;65462;52.148;7.940;2023-04-08T03:37:57;101419.69;;;5.52
76583;BMP280;65462;52.148;7.940;2023-04-08T03:40:22;101405.47;;;5.43
76583;BMP280;65462;52.148;7.940;2023-04-08T03:42:47;101436.72;;;5.69
76583;BMP280;65462;52.148;7.940;2023-04-08T03:45:13;101423.56;;;5.59
76583;BMP280;65462;52.148;7.940;2023-04-08T03:47:39;101436.19;;;5.67
76583;BMP280;65462;52.148;7.940;2023-04-08T03:50:05;101434.63;;;5.66
76583;BMP280;65462;52.148;7.940;2023-04-08T03:52:31;101424.41;;;5.65
76583;BMP280;65462;52.148;7.940;2023-04-08T03:54:56;101439.34;;;5.69
76583;BMP280;65462;52.148;7.940;2023-04-08T03:57:21;101444.84;;;5.68
76583;BMP280;65462;52.148;7.940;2023-04-08T03:59:46;101429.09;;;5.58
76583;BMP280;65462;52.148;7.940;2023-04-08T04:02:12;101446.94;;;5.76
76583;BMP280;65462;52.148;7.940;2023-04-08T04:04:37;101417.81;;;5.57
76583;BMP280;65462;52.148;7.940;2023-04-08T04:07:02;101446.16;;;5.81
76583;BMP280;65462;52.148;7.940;2023-04-08T04:09:28;101434.84;;;5.75
76583;BMP280;65462;52.148;7.940;2023-04-08T04:11:53;101446.13;;;5.86
76583;BMP280;65462;52.148;7.940;2023-04-08T04:14:18;101427.78;;;5.76
76583;BMP280;65462;52.148;7.940;2023-04-08T04:16:43;101412.34;;;5.64
76583;BMP280;65462;52.148;7.940;2023-04-08T04:19:09;101455.31;;;5.88
76583;BMP280;65462;52.148;7.940;2023-04-08T04:21:34;101426.75;;;5.61
76583;BMP280;65462;52.148;7.940;2023-04-08T04:24:03;101428.31;;;5.62
76583;BMP280;65462;52.148;7.940;2023-04-08T04:26:28;101462.13;;;5.79
76583;BMP280;65462;52.148;7.940;2023-04-08T04:28:53;101451.88;;;5.62
76583;BMP280;65462;52.148;7.940;2023-04-08T04:31:23;101476.56;;;5.87
76583;BMP280;65462;52.148;7.940;2023-04-08T04:33:51;101477.59;;;5.86
76583;BMP280;65462;52.148;7.940;2023-04-08T04:36:17;101477.06;;;5.89
76583;BMP280;65462;52.148;7.940;2023-04-08T04:38:43;101465.28;;;5.76
76583;BMP280;65462;52.148;7.940;2023-04-08T04:41:08;101448.22;;;5.74
76583;BMP280;65462;52.148;7.940;2023-04-08T04:43:33;101433.00;;;5.55
76583;BMP280;65462;52.148;7.940;2023-04-08T04:45:59;101477.91;;;5.84
76583;BMP280;65462;52.148;7.940;2023-04-08T04:48:24;101476.31;;;5.83
76583;BMP280;65462;52.148;7.940;2023-04-08T04:50:57;101445.09;;;5.61
76583;BMP280;65462;52.148;7.940;2023-04-08T04:53:23;101467.13;;;5.81
76583;BMP280;65462;52.148;7.940;2023-04-08T04:55:51;101459.50;;;5.74
76583;BMP280;65462;52.148;7.940;2023-04-08T04:58:17;101483.34;;;5.88
76583;BMP280;65462;52.148;7.940;2023-04-08T05:00:43;101475.53;;;5.83
76583;BMP280;65462;52.148;7.940;2023-04-08T05:03:08;101448.00;;;5.70
76583;BMP280;65462;52.148;7.940;2023-04-08T05:05:33;101479.41;;;5.85
76583;BMP280;65462;52.148;7.940;2023-04-08T05:07:59;101492.28;;;5.92
76583;BMP280;65462;52.148;7.940;2023-04-08T05:10:24;101500.72;;;5.94
76583;BMP280;65462;52.148;7.940;2023-04-08T05:12:50;101451.38;;;5.70
76583;BMP280;65462;52.148;7.940;2023-04-08T05:15:15;101450.84;;;5.74
76583;BMP280;65462;52.148;7.940;2023-04-08T05:17:40;101493.88;;;6.03
76583;BMP280;65462;52.148;7.940;2023-04-08T05:20:06;101488.63;;;5.98
76583;BMP280;65462;52.148;7.940;2023-04-08T05:22:31;101481.78;;;5.92
76583;BMP280;65462;52.148;7.940;2023-04-08T05:24:57;101483.38;;;5.93
76583;BMP280;65462;52.148;7.940;2023-04-08T05:27:22;101497.00;;;6.00
76583;BMP280;65462;52.148;7.940;2023-04-08T05:29:47;101479.72;;;5.84
76583;BMP280;65462;52.148;7.940;2023-04-08T05:32:12;101498.59;;;5.96
76583;BMP280;65462;52.148;7.940;2023-04-08T05:34:38;101509.09;;;5.96
76583;BMP280;65462;52.148;7.940;2023-04-08T05:37:03;101504.13;;;5.99
76583;BMP280;65462;52.148;7.940;2023-04-08T05:39:29;101486.53;;;5.95
76583;BMP280;65462;52.148;7.940;2023-04-08T05:41:54;101517.19;;;6.04
76583;BMP280;65462;52.148;7.940;2023-04-08T05:44:20;101518.53;;;6.07
76583;BMP280;65462;52.148;7.940;2023-04-08T05:46:45;101492.81;;;5.89
76583;BMP280;65462;52.148;7.940;2023-04-08T05:49:10;101510.63;;;5.82
76583;BMP280;65462;52.148;7.940;2023-04-08T05:51:36;101508.03;;;5.92
76583;BMP280;65462;52.148;7.940;2023-04-08T05:54:01;101531.13;;;6.10
76583;BMP280;65462;52.148;7.940;2023-04-08T05:56:27;101527.97;;;6.03
76583;BMP280;65462;52.148;7.940;2023-04-08T05:58:52;101533.72;;;6.05
76583;BMP280;65462;52.148;7.940;2023-04-08T06:01:17;101538.97;;;6.15
76583;BMP280;65462;52.148;7.940;2023-04-08T06:03:43;101517.72;;;6.01
76583;BMP280;65462;52.148;7.940;2023-04-08T06:06:11;101521.13;;;6.02
76583;BMP280;65462;52.148;7.940;2023-04-08T06:08:36;101524.31;;;6.09
76583;BMP280;65462;52.148;7.940;2023-04-08T06:11:02;101517.19;;;6.04
76583;BMP280;65462;52.148;7.940;2023-04-08T06:13:30;101520.88;;;6.03
76583;BMP280;65462;52.148;7.940;2023-04-08T06:15:57;101554.22;;;6.23
76583;BMP280;65462;52.148;7.940;2023-04-08T06:18:23;101545.53;;;6.27
76583;BMP280;65462;52.148;7.940;2023-04-08T06:20:48;101550.53;;;6.29
76583;BMP280;65462;52.148;7.940;2023-04-08T06:23:13;101562.09;;;6.23
76583;BMP280;65462;52.148;7.940;2023-04-08T06:25:38;101573.06;;;6.30
76583;BMP280;65462;52.148;7.940;2023-04-08T06:28:04;101539.00;;;6.25
76583;BMP280;65462;52.148;7.940;2023-04-08T06:30:29;101557.09;;;6.37
76583;BMP280;65462;52.148;7.940;2023-04-08T06:32:54;101579.16;;;6.36
76583;BMP280;65462;52.148;7.940;2023-04-08T06:35:19;101576.78;;;6.39
76583;BMP280;65462;52.148;7.940;2023-04-08T06:37:45;101563.13;;;6.37
76583;BMP280;65462;52.148;7.940;2023-04-08T06:40:11;101586.75;;;6.42
76583;BMP280;65462;52.148;7.940;2023-04-08T06:42:36;101571.53;;;6.39
76583;BMP280;65462;52.148;7.940;2023-04-08T06:45:03;101595.69;;;6.51
76583;BMP280;65462;52.148;7.940;2023-04-08T06:47:28;101550.25;;;6.30
76583;BMP280;65462;52.148;7.940;2023-04-08T06:49:56;101566.50;;;6.43
76583;BMP280;65462;52.148;7.940;2023-04-08T06:52:21;101569.41;;;6.41
76583;BMP280;65462;52.148;7.940;2023-04-08T06:54:47;101597.47;;;6.56
76583;BMP280;65462;52.148;7.940;2023-04-08T06:57:12;101594.88;;;6.51
76583;BMP280;65462;52.148;7.940;2023-04-08T06:59:37;101561.31;;;6.32
76583;BMP280;65462;52.148;7.940;2023-04-08T07:02:02;101592.78;;;6.53
76583;BMP280;65462;52.148;7.940;2023-04-08T07:04:28;101610.34;;;6.62
76583;BMP280;65462;52.148;7.940;2023-04-08T07:06:53;101590.66;;;6.55
76583;BMP280;65462;52.148;7.940;2023-04-08T07:09:18;101588.59;;;6.52
76583;BMP280;65462;52.148;7.940;2023-04-08T07:11:43;101590.69;;;6.50
76583;BMP280;65462;52.148;7.940;2023-04-08T07:14:10;101600.66;;;6.53
76583;BMP280;65462;52.148;7.940;2023-04-08T07:16:35;101603.00;;;6.54
76583;BMP280;65462;52.148;7.940;2023-04-08T07:19:00;101598.81;;;6.53
76583;BMP280;65462;52.148;7.940;2023-04-08T07:21:26;101594.59;;;6.57
76583;BMP280;65462;52.148;7.940;2023-04-08T07:23:51;101599.06;;;6.57
76583;BMP280;65462;52.148;7.940;2023-04-08T07:26:16;101584.13;;;6.52
76583;BMP280;65462;52.148;7.940;2023-04-08T07:28:42;101619.81;;;6.73
76583;BMP280;65462;52.148;7.940;2023-04-08T07:31:09;101618.50;;;6.76
76583;BMP280;65462;52.148;7.940;2023-04-08T07:33:35;101626.34;;;6.81
76583;BMP280;65462;52.148;7.940;2023-04-08T07:36:00;101599.84;;;6.67
76583;BMP280;65462;52.148;7.940;2023-04-08T07:38:26;101620.84;;;6.87
76583;BMP280;65462;52.148;7.940;2023-04-08T07:40:51;101599.81;;;6.82
76583;BMP280;65462;52.148;7.940;2023-04-08T07:43:17;101585.13;;;6.76
76583;BMP280;65462;52.148;7.940;2023-04-08T07:45:42;101614.25;;;7.00
76583;BMP280;65462;52.148;7.940;2023-04-08T07:48:07;101597.16;;;6.92
76583;BMP280;65462;52.148;7.940;2023-04-08T07:50:35;101630.72;;;7.21
76583;BMP280;65462;52.148;7.940;2023-04-08T07:53:01;101598.19;;;7.07
76583;BMP280;65462;52.148;7.940;2023-04-08T07:55:26;101624.91;;;7.29
76583;BMP280;65462;52.148;7.940;2023-04-08T07:57:51;101629.13;;;7.35
76583;BMP280;65462;52.148;7.940;2023-04-08T08:00:17;101606.28;;;7.25
76583;BMP280;65462;52.148;7.940;2023-04-08T08:02:46;101632.75;;;7.44
76583;BMP280;65462;52.148;7.940;2023-04-08T08:05:12;101616.69;;;7.50
76583;BMP280;65462;52.148;7.940;2023-04-08T08:07:37;101618.78;;;7.58
76583;BMP280;65462;52.148;7.940;2023-04-08T08:10:03;101599.31;;;7.54
76583;BMP280;65462;52.148;7.940;2023-04-08T08:12:28;101615.28;;;7.68
76583;BMP280;65462;52.148;7.940;2023-04-08T08:14:53;101646.16;;;7.96
76583;BMP280;65462;52.148;7.940;2023-04-08T08:17:23;101602.06;;;7.78
76583;BMP280;65462;52.148;7.940;2023-04-08T08:19:48;101640.03;;;8.06
76583;BMP280;65462;52.148;7.940;2023-04-08T08:22:14;101650.78;;;8.14
76583;BMP280;65462;52.148;7.940;2023-04-08T08:24:39;101650.00;;;8.14
76583;BMP280;65462;52.148;7.940;2023-04-08T08:27:04;101647.09;;;8.15
76583;BMP280;65462;52.148;7.940;2023-04-08T08:29:30;101642.84;;;8.19
76583;BMP280;65462;52.148;7.940;2023-04-08T08:31:55;101663.81;;;8.30
76583;BMP280;65462;52.148;7.940;2023-04-08T08:34:22;101631.38;;;8.05
76583;BMP280;65462;52.148;7.940;2023-04-08T08:36:47;101627.19;;;7.99
76583;BMP280;65462;52.148;7.940;2023-04-08T08:39:12;101659.16;;;8.21
76583;BMP280;65462;52.148;7.940;2023-04-08T08:41:40;101651.25;;;8.21
76583;BMP280;65462;52.148;7.940;2023-04-08T08:44:07;101684.81;;;8.40
76583;BMP280;65462;52.148;7.940;2023-04-08T08:46:33;101681.88;;;8.46
76583;BMP280;65462;52.148;7.940;2023-04-08T08:48:58;101657.19;;;8.37
76583;BMP280;65462;52.148;7.940;2023-04-08T08:51:24;101669.47;;;8.52
76583;BMP280;65462;52.148;7.940;2023-04-08T08:53:51;101650.31;;;8.41
76583;BMP280;65462;52.148;7.940;2023-04-08T08:56:17;101658.94;;;8.52
76583;BMP280;65462;52.148;7.940;2023-04-08T08:58:42;101670.44;;;8.61
76583;BMP280;65462;52.148;7.940;2023-04-08T09:01:33;101683.16;;;8.82
76583;BMP280;65462;52.148;7.940;2023-04-08T09:04:25;101678.66;;;8.83
76583;BMP280;65462;52.148;7.940;2023-04-08T09:07:08;101678.03;;;8.91
76583;BMP280;65462;52.148;7.940;2023-04-08T09:09:49;101676.19;;;8.91
76583;BMP280;65462;52.148;7.940;2023-04-08T09:12:15;101669.09;;;8.92
76583;BMP280;65462;52.148;7.940;2023-04-08T09:14:41;101691.88;;;9.07
76583;BMP280;65462;52.148;7.940;2023-04-08T09:17:06;101680.03;;;9.04
76583;BMP280;65462;52.148;7.940;2023-04-08T09:19:32;101687.91;;;9.09
76583;BMP280;65462;52.148;7.940;2023-04-08T09:22:09;101689.09;;;9.17
76583;BMP280;65462;52.148;7.940;2023-04-08T09:24:35;101688.06;;;9.18
76583;BMP280;65462;52.148;7.940;2023-04-08T09:27:04;101686.22;;;9.18
76583;BMP280;65462;52.148;7.940;2023-04-08T09:29:29;101677.59;;;9.13
76583;BMP280;65462;52.148;7.940;2023-04-08T09:31:59;101686.66;;;9.25
76583;BMP280;65462;52.148;7.940;2023-04-08T09:34:26;101678.75;;;9.25
76583;BMP280;65462;52.148;7.940;2023-04-08T09:36:52;101681.53;;;9.34
76583;BMP280;65462;52.148;7.940;2023-04-08T09:39:18;101702.47;;;9.49
76583;BMP280;65462;52.148;7.940;2023-04-08T09:41:47;101701.06;;;9.56
76583;BMP280;65462;52.148;7.940;2023-04-08T09:44:14;101680.38;;;9.45
76583;BMP280;65462;52.148;7.940;2023-04-08T09:49:17;101688.31;;;9.64
76583;BMP280;65462;52.148;7.940;2023-04-08T09:51:56;101705.50;;;9.80
76583;BMP280;65462;52.148;7.940;2023-04-08T09:54:31;101683.69;;;9.74
76583;BMP280;65462;52.148;7.940;2023-04-08T09:57:15;101689.00;;;9.88
76583;BMP280;65462;52.148;7.940;2023-04-08T09:59:44;101698.28;;;10.04
76583;BMP280;65462;52.148;7.940;2023-04-08T10:02:16;101667.19;;;10.01
76583;BMP280;65462;52.148;7.940;2023-04-08T10:04:46;101688.59;;;10.18
76583;BMP280;65462;52.148;7.940;2023-04-08T10:07:12;101689.50;;;10.27
76583;BMP280;65462;52.148;7.940;2023-04-08T10:09:38;101687.34;;;10.29
76583;BMP280;65462;52.148;7.940;2023-04-08T10:12:05;101687.00;;;10.36
76583;BMP280;65462;52.148;7.940;2023-04-08T10:14:31;101689.97;;;10.48
76583;BMP280;65462;52.148;7.940;2023-04-08T10:17:27;101697.63;;;10.63
76583;BMP280;65462;52.148;7.940;2023-04-08T10:19:53;101680.97;;;10.49
76583;BMP280;65462;52.148;7.940;2023-04-08T10:27:39;101711.88;;;10.80
76583;BMP280;65462;52.148;7.940;2023-04-08T10:32:56;101697.56;;;10.81
76583;BMP280;65462;52.148;7.940;2023-04-08T10:35:34;101711.09;;;10.93
76583;BMP280;65462;52.148;7.940;2023-04-08T10:38:01;101697.47;;;10.86
76583;BMP280;65462;52.148;7.940;2023-04-08T10:40:26;101690.16;;;10.83
76583;BMP280;65462;52.148;7.940;2023-04-08T10:42:56;101718.81;;;11.03
76583;BMP280;65462;52.148;7.940;2023-04-08T10:45:21;101712.47;;;11.05
76583;BMP280;65462;52.148;7.940;2023-04-08T10:47:46;101722.66;;;11.11
76583;BMP280;65462;52.148;7.940;2023-04-08T10:50:17;101702.88;;;11.09
76583;BMP280;65462;52.148;7.940;2023-04-08T10:52:52;101726.59;;;11.27
76583;BMP280;65462;52.148;7.940;2023-04-08T10:55:25;101715.13;;;11.32
76583;BMP280;65462;52.148;7.940;2023-04-08T10:57:51;101708.25;;;11.31
76583;BMP280;65462;52.148;7.940;2023-04-08T11:00:17;101692.25;;;11.36
76583;BMP280;65462;52.148;7.940;2023-04-08T11:02:43;101688.72;;;11.40
76583;BMP280;65462;52.148;7.940;2023-04-08T11:05:11;101717.13;;;11.62
76583;BMP280;65462;52.148;7.940;2023-04-08T11:07:42;101697.34;;;11.59
76583;BMP280;65462;52.148;7.940;2023-04-08T11:10:08;101710.34;;;11.69
76583;BMP280;65462;52.148;7.940;2023-04-08T11:12:34;101693.66;;;11.69
76583;BMP280;65462;52.148;7.940;2023-04-08T11:15:02;101719.91;;;11.93
76583;BMP280;65462;52.148;7.940;2023-04-08T11:17:28;101702.38;;;11.83
76583;BMP280;65462;52.148;7.940;2023-04-08T11:19:54;101729.06;;;12.09
76583;BMP280;65462;52.148;7.940;2023-04-08T11:22:19;101688.75;;;11.98
76583;BMP280;65462;52.148;7.940;2023-04-08T11:24:45;101714.47;;;12.20
76583;BMP280;65462;52.148;7.940;2023-04-08T11:27:11;101708.28;;;12.24
76583;BMP280;65462;52.148;7.940;2023-04-08T11:29:36;101710.19;;;12.32
76583;BMP280;65462;52.148;7.940;2023-04-08T11:32:02;101685.59;;;12.32
76583;BMP280;65462;52.148;7.940;2023-04-08T11:34:27;101689.47;;;12.34
76583;BMP280;65462;52.148;7.940;2023-04-08T11:36:55;101706.16;;;12.57
76583;BMP280;65462;52.148;7.940;2023-04-08T11:39:22;101695.81;;;12.56
76583;BMP280;65462;52.148;7.940;2023-04-08T11:41:48;101685.72;;;12.58
76583;BMP280;65462;52.148;7.940;2023-04-08T11:44:14;101703.25;;;12.76
76583;BMP280;65462;52.148;7.940;2023-04-08T11:46:39;101689.50;;;12.74
76583;BMP280;65462;52.148;7.940;2023-04-08T11:49:07;101715.81;;;12.92
76583;BMP280;65462;52.148;7.940;2023-04-08T11:51:34;101720.03;;;12.93
76583;BMP280;65462;52.148;7.940;2023-04-08T11:54:03;101705.75;;;12.81
76583;BMP280;65462;52.148;7.940;2023-04-08T11:56:30;101716.56;;;12.93
76583;BMP280;65462;52.148;7.940;2023-04-08T11:58:57;101707.03;;;12.83
76583;BMP280;65462;52.148;7.940;2023-04-08T12:01:23;101702.38;;;12.89
76583;BMP280;65462;52.148;7.940;2023-04-08T12:03:59;101707.06;;;12.92
76583;BMP280;65462;52.148;7.940;2023-04-08T12:06:25;101692.69;;;12.84
76583;BMP280;65462;52.148;7.940;2023-04-08T12:08:53;101694.84;;;12.82
76583;BMP280;65462;52.148;7.940;2023-04-08T12:11:18;101701.00;;;13.00
76583;BMP280;65462;52.148;7.940;2023-04-08T12:13:43;101696.63;;;12.95
76583;BMP280;65462;52.148;7.940;2023-04-08T12:16:09;101701.22;;;13.12
76583;BMP280;65462;52.148;7.940;2023-04-08T12:18:34;101685.38;;;13.07
76583;BMP280;65462;52.148;7.940;2023-04-08T12:21:01;101687.47;;;13.18
76583;BMP280;65462;52.148;7.940;2023-04-08T12:23:26;101702.03;;;13.38
76583;BMP280;65462;52.148;7.940;2023-04-08T12:25:52;101709.25;;;13.55
76583;BMP280;65462;52.148;7.940;2023-04-08T12:28:17;101714.06;;;13.70
76583;BMP280;65462;52.148;7.940;2023-04-08T12:30:42;101713.59;;;13.85
76583;BMP280;65462;52.148;7.940;2023-04-08T12:33:07;101706.09;;;13.95
76583;BMP280;65462;52.148;7.940;2023-04-08T12:35:33;101700.59;;;14.00
76583;BMP280;65462;52.148;7.940;2023-04-08T12:37:58;101688.88;;;14.01
76583;BMP280;65462;52.148;7.940;2023-04-08T12:40:23;101679.50;;;14.04
76583;BMP280;65462;52.148;7.940;2023-04-08T12:42:48;101691.34;;;14.24
76583;BMP280;65462;52.148;7.940;2023-04-08T12:45:14;101712.22;;;14.42
76583;BMP280;65462;52.148;7.940;2023-04-08T12:47:39;101717.84;;;14.49
76583;BMP280;65462;52.148;7.940;2023-04-08T12:50:05;101685.06;;;14.28
76583;BMP280;65462;52.148;7.940;2023-04-08T12:52:30;101709.91;;;14.41
76583;BMP280;65462;52.148;7.940;2023-04-08T12:54:57;101720.19;;;14.51
76583;BMP280;65462;52.148;7.940;2023-04-08T12:57:22;101722.53;;;14.52
76583;BMP280;65462;52.148;7.940;2023-04-08T12:59:47;101694.13;;;14.36
76583;BMP280;65462;52.148;7.940;2023-04-08T13:02:13;101691.78;;;14.34
76583;BMP280;65462;52.148;7.940;2023-04-08T13:04:38;101692.84;;;14.42
76583;BMP280;65462;52.148;7.940;2023-04-08T13:07:03;101718.00;;;14.53
76583;BMP280;65462;52.148;7.940;2023-04-08T13:09:29;101719.53;;;14.54
76583;BMP280;65462;52.148;7.940;2023-04-08T13:11:54;101717.69;;;14.54
76583;BMP280;65462;52.148;7.940;2023-04-08T13:14:20;101708.19;;;14.45
76583;BMP280;65462;52.148;7.940;2023-04-08T13:16:45;101719.09;;;14.52
76583;BMP280;65462;52.148;7.940;2023-04-08T13:19:11;101717.53;;;14.51
76583;BMP280;65462;52.148;7.940;2023-04-08T13:21:37;101713.75;;;14.52
76583;BMP280;65462;52.148;7.940;2023-04-08T13:24:02;101720.84;;;14.48
76583;BMP280;65462;52.148;7.940;2023-04-08T13:26:27;101703.63;;;14.37
76583;BMP280;65462;52.148;7.940;2023-04-08T13:28:53;101718.50;;;14.46
76583;BMP280;65462;52.148;7.940;2023-04-08T13:31:18;101706.91;;;14.42
76583;BMP280;65462;52.148;7.940;2023-04-08T13:33:43;101719.44;;;14.42
76583;BMP280;65462;52.148;7.940;2023-04-08T13:36:09;101714.28;;;14.37
76583;BMP280;65462;52.148;7.940;2023-04-08T13:38:34;101700.53;;;14.26
76583;BMP280;65462;52.148;7.940;2023-04-08T13:41:00;101703.19;;;14.26
76583;BMP280;65462;52.148;7.940;2023-04-08T13:43:25;101717.13;;;14.32
76583;BMP280;65462;52.148;7.940;2023-04-08T13:45:51;101725.09;;;14.32
76583;BMP280;65462;52.148;7.940;2023-04-08T13:48:16;101726.34;;;14.26
76583;BMP280;65462;52.148;7.940;2023-04-08T13:50:41;101711.69;;;14.11
76583;BMP280;65462;52.148;7.940;2023-04-08T13:53:07;101711.38;;;14.04
76583;BMP280;65462;52.148;7.940;2023-04-08T13:55:32;101708.25;;;14.02
76583;BMP280;65462;52.148;7.940;2023-04-08T13:57:58;101702.81;;;13.90
76583;BMP280;65462;52.148;7.940;2023-04-08T14:00:23;101706.22;;;13.90
76583;BMP280;65462;52.148;7.940;2023-04-08T14:02:49;101714.84;;;13.87
76583;BMP280;65462;52.148;7.940;2023-04-08T14:05:15;101721.88;;;13.83
76583;BMP280;65462;52.148;7.940;2023-04-08T14:07:41;101739.06;;;13.94
76583;BMP280;65462;52.148;7.940;2023-04-08T14:10:06;101731.72;;;13.91
76583;BMP280;65462;52.148;7.940;2023-04-08T14:12:32;101709.72;;;13.74
76583;BMP280;65462;52.148;7.940;2023-04-08T14:14:57;101733.31;;;13.92